sensor_id;sensor_type;location;lat;lon;timestamp;pressure;altitude;pressure_sealevel;temperature;humidity
16525;BME280;8375;33.594;-117.718;2023-04-06T00:00:51;100442.66;;;19.40;39.77
16525;BME280;8375;33.594;-117.718;2023-04-06T00:03:21;100447.34;;;19.21;40.16
16525;BME280;8375;33.594;-117.718;2023-04-06T00:05:50;100438.66;;;19.04;41.04
16525;BME280;8375;33.594;-117.718;2023-04-06T00:08:19;100441.59;;;18.92;42.29
16525;BME280;8375;33.594;-117.718;2023-04-06T00:10:50;100441.28;;;18.79;43.09
16525;BME280;8375;33.594;-117.718;2023-04-06T00:13:18;100441.16;;;18.64;41.78
16525;BME280;8375;33.594;-117.718;2023-04-06T00:15:47;100441.81;;;18.66;41.33
16525;BME280;8375;33.594;-117.718;2023-04-06T00:18:16;100447.22;;;18.48;40.00
16525;BME280;8375;33.594;-117.718;2023-04-06T00:20:48;100446.22;;;18.32;41.42
16525;BME280;8375;33.594;-117.718;2023-04-06T00:23:17;100451.81;;;18.38;41.64
16525;BME280;8375;33.594;-117.718;2023-04-06T00:25:46;100442.75;;;18.24;41.79
16525;BME280;8375;33.594;-117.718;2023-04-06T00:28:14;100448.19;;;18.30;42.11
16525;BME280;8375;33.594;-117.718;2023-04-06T00:30:43;100440.47;;;18.29;42.48
16525;BME280;8375;33.594;-117.718;2023-04-06T00:33:12;100442.91;;;18.14;42.00
16525;BME280;8375;33.594;-117.718;2023-04-06T00:35:40;100443.25;;;18.11;42.07
16525;BME280;8375;33.594;-117.718;2023-04-06T00:38:11;100442.91;;;18.14;42.50
16525;BME280;8375;33.594;-117.718;2023-04-06T00:40:40;100443.31;;;17.84;42.04
16525;BME280;8375;33.594;-117.718;2023-04-06T00:43:08;100441.50;;;17.77;41.86
16525;BME280;8375;33.594;-117.718;2023-04-06T00:45:38;100445.59;;;17.79;40.59
16525;BME280;8375;33.594;-117.718;2023-04-06T00:48:07;100438.06;;;17.84;40.60
16525;BME280;8375;33.594;-117.718;2023-04-06T00:50:36;100441.97;;;17.80;40.49
16525;BME280;8375;33.594;-117.718;2023-04-06T00:53:04;100442.19;;;17.87;39.71
16525;BME280;8375;33.594;-117.718;2023-04-06T00:55:35;100442.63;;;17.74;40.01
16525;BME280;8375;33.594;-117.718;2023-04-06T00:58:03;100438.53;;;17.71;38.93
16525;BME280;8375;33.594;-117.718;2023-04-06T01:00:32;100440.09;;;17.56;38.63
16525;BME280;8375;33.594;-117.718;2023-04-06T01:03:01;100441.72;;;17.49;39.52
16525;BME280;8375;33.594;-117.718;2023-04-06T01:05:34;100438.22;;;17.40;39.87
16525;BME280;8375;33.594;-117.718;2023-04-06T01:08:06;100442.00;;;17.37;39.44
16525;BME280;8375;33.594;-117.718;2023-04-06T01:10:37;100445.56;;;17.28;39.82
16525;BME280;8375;33.594;-117.718;2023-04-06T01:13:06;100444.66;;;17.19;40.01
16525;BME280;8375;33.594;-117.718;2023-04-06T01:15:35;100448.09;;;17.11;40.01
16525;BME280;8375;33.594;-117.718;2023-04-06T01:18:05;100453.78;;;17.07;40.08
16525;BME280;8375;33.594;-117.718;2023-04-06T01:20:35;100454.00;;;16.95;40.68
16525;BME280;8375;33.594;-117.718;2023-04-06T01:23:05;100451.31;;;16.87;41.79
16525;BME280;8375;33.594;-117.718;2023-04-06T01:25:34;100451.13;;;16.80;42.05
16525;BME280;8375;33.594;-117.718;2023-04-06T01:28:03;100453.53;;;16.74;42.42
16525;BME280;8375;33.594;-117.718;2023-04-06T01:30:32;100457.91;;;16.65;43.15
16525;BME280;8375;33.594;-117.718;2023-04-06T01:33:00;100454.38;;;16.56;42.16
16525;BME280;8375;33.594;-117.718;2023-04-06T01:35:31;100453.84;;;16.52;42.11
16525;BME280;8375;33.594;-117.718;2023-04-06T01:37:59;100457.75;;;16.48;41.51
16525;BME280;8375;33.594;-117.718;2023-04-06T01:40:30;100447.19;;;16.40;41.65
16525;BME280;8375;33.594;-117.718;2023-04-06T01:42:58;100451.53;;;16.31;41.67
16525;BME280;8375;33.594;-117.718;2023-04-06T01:45:27;100457.22;;;16.26;42.24
16525;BME280;8375;33.594;-117.718;2023-04-06T01:47:56;100465.53;;;16.22;41.99
16525;BME280;8375;33.594;-117.718;2023-04-06T01:50:25;100461.03;;;16.14;42.46
16525;BME280;8375;33.594;-117.718;2023-04-06T01:52:53;100460.28;;;16.04;42.99
16525;BME280;8375;33.594;-117.718;2023-04-06T01:55:22;100463.22;;;15.91;42.20
16525;BME280;8375;33.594;-117.718;2023-04-06T01:57:52;100462.28;;;15.82;42.74
16525;BME280;8375;33.594;-117.718;2023-04-06T02:00:21;100467.41;;;15.74;42.13
16525;BME280;8375;33.594;-117.718;2023-04-06T02:02:50;100466.34;;;15.66;41.96
16525;BME280;8375;33.594;-117.718;2023-04-06T02:05:19;100463.78;;;15.57;41.35
16525;BME280;8375;33.594;-117.718;2023-04-06T02:07:48;100460.78;;;15.51;41.62
16525;BME280;8375;33.594;-117.718;2023-04-06T02:10:18;100462.31;;;15.44;42.15
16525;BME280;8375;33.594;-117.718;2023-04-06T02:12:46;100468.69;;;15.32;42.57
16525;BME280;8375;33.594;-117.718;2023-04-06T02:15:17;100467.72;;;15.23;43.63
16525;BME280;8375;33.594;-117.718;2023-04-06T02:17:45;100470.38;;;15.13;43.55
16525;BME280;8375;33.594;-117.718;2023-04-06T02:20:14;100466.69;;;15.06;42.97
16525;BME280;8375;33.594;-117.718;2023-04-06T02:22:43;100463.56;;;14.92;43.11
16525;BME280;8375;33.594;-117.718;2023-04-06T02:25:12;100459.69;;;14.87;43.16
16525;BME280;8375;33.594;-117.718;2023-04-06T02:27:41;100463.44;;;14.84;42.45
16525;BME280;8375;33.594;-117.718;2023-04-06T02:30:10;100465.50;;;14.71;42.71
16525;BME280;8375;33.594;-117.718;2023-04-06T02:32:41;100459.97;;;14.64;42.50
16525;BME280;8375;33.594;-117.718;2023-04-06T02:35:09;100469.06;;;14.50;41.87
16525;BME280;8375;33.594;-117.718;2023-04-06T02:37:38;100469.16;;;14.48;42.84
16525;BME280;8375;33.594;-117.718;2023-04-06T02:40:08;100469.16;;;14.48;42.39
16525;BME280;8375;33.594;-117.718;2023-04-06T02:42:36;100471.38;;;14.33;42.52
16525;BME280;8375;33.594;-117.718;2023-04-06T02:45:06;100468.75;;;14.33;42.97
16525;BME280;8375;33.594;-117.718;2023-04-06T02:47:35;100475.22;;;14.29;42.33
16525;BME280;8375;33.594;-117.718;2023-04-06T02:50:06;100469.00;;;14.20;43.28
16525;BME280;8375;33.594;-117.718;2023-04-06T02:52:34;100474.66;;;14.16;42.74
16525;BME280;8375;33.594;-117.718;2023-04-06T02:55:03;100474.06;;;14.02;42.43
16525;BME280;8375;33.594;-117.718;2023-04-06T02:57:34;100482.44;;;13.96;42.63
16525;BME280;8375;33.594;-117.718;2023-04-06T03:00:03;100468.38;;;13.87;44.12
16525;BME280;8375;33.594;-117.718;2023-04-06T03:02:31;100470.56;;;13.82;44.49
16525;BME280;8375;33.594;-117.718;2023-04-06T03:05:00;100470.97;;;13.77;44.09
16525;BME280;8375;33.594;-117.718;2023-04-06T03:07:31;100471.25;;;13.74;44.69
16525;BME280;8375;33.594;-117.718;2023-04-06T03:10:00;100467.38;;;13.69;44.82
16525;BME280;8375;33.594;-117.718;2023-04-06T03:12:28;100464.31;;;13.63;44.79
16525;BME280;8375;33.594;-117.718;2023-04-06T03:14:57;100468.41;;;13.56;44.62
16525;BME280;8375;33.594;-117.718;2023-04-06T03:17:26;100469.47;;;13.44;44.59
16525;BME280;8375;33.594;-117.718;2023-04-06T03:19:54;100469.00;;;13.39;44.66
16525;BME280;8375;33.594;-117.718;2023-04-06T03:22:23;100475.56;;;13.33;45.40
16525;BME280;8375;33.594;-117.718;2023-04-06T03:24:54;100477.25;;;13.23;46.49
16525;BME280;8375;33.594;-117.718;2023-04-06T03:27:22;100475.88;;;13.18;47.09
16525;BME280;8375;33.594;-117.718;2023-04-06T03:29:51;100478.00;;;13.03;47.37
16525;BME280;8375;33.594;-117.718;2023-04-06T03:32:20;100476.34;;;13.02;47.21
16525;BME280;8375;33.594;-117.718;2023-04-06T03:34:48;100472.44;;;12.97;47.35
16525;BME280;8375;33.594;-117.718;2023-04-06T03:37:17;100477.09;;;12.93;47.72
16525;BME280;8375;33.594;-117.718;2023-04-06T03:39:46;100475.44;;;12.92;47.88
16525;BME280;8375;33.594;-117.718;2023-04-06T03:42:16;100480.19;;;12.87;48.26
16525;BME280;8375;33.594;-117.718;2023-04-06T03:44:45;100481.28;;;12.84;47.84
16525;BME280;8375;33.594;-117.718;2023-04-06T03:47:13;100485.22;;;12.79;48.14
16525;BME280;8375;33.594;-117.718;2023-04-06T03:49:42;100483.38;;;12.69;47.42
16525;BME280;8375;33.594;-117.718;2023-04-06T03:52:11;100492.84;;;12.70;47.97
16525;BME280;8375;33.594;-117.718;2023-04-06T03:54:39;100484.69;;;12.64;48.65
16525;BME280;8375;33.594;-117.718;2023-04-06T03:57:08;100489.88;;;12.64;48.62
16525;BME280;8375;33.594;-117.718;2023-04-06T03:59:38;100490.97;;;12.61;48.19
16525;BME280;8375;33.594;-117.718;2023-04-06T04:02:07;100489.31;;;12.60;48.65
16525;BME280;8375;33.594;-117.718;2023-04-06T04:04:36;100498.19;;;12.57;48.92
16525;BME280;8375;33.594;-117.718;2023-04-06T04:07:04;100495.03;;;12.54;49.48
16525;BME280;8375;33.594;-117.718;2023-04-06T04:09:33;100485.22;;;12.46;50.47
16525;BME280;8375;33.594;-117.718;2023-04-06T04:12:02;100490.56;;;12.44;50.67
16525;BME280;8375;33.594;-117.718;2023-04-06T04:14:30;100496.72;;;12.43;50.54
16525;BME280;8375;33.594;-117.718;2023-04-06T04:17:01;100502.97;;;12.41;50.63
16525;BME280;8375;33.594;-117.718;2023-04-06T04:19:29;100496.50;;;12.35;50.28
16525;BME280;8375;33.594;-117.718;2023-04-06T04:21:58;100499.59;;;12.29;49.82
16525;BME280;8375;33.594;-117.718;2023-04-06T04:24:27;100503.50;;;12.23;50.77
16525;BME280;8375;33.594;-117.718;2023-04-06T04:26:55;100508.00;;;12.21;51.22
16525;BME280;8375;33.594;-117.718;2023-04-06T04:29:24;100509.19;;;12.17;50.87
16525;BME280;8375;33.594;-117.718;2023-04-06T04:31:53;100516.66;;;12.10;51.03
16525;BME280;8375;33.594;-117.718;2023-04-06T04:34:23;100514.63;;;12.02;51.19
16525;BME280;8375;33.594;-117.718;2023-04-06T04:36:52;100513.44;;;11.95;52.07
16525;BME280;8375;33.594;-117.718;2023-04-06T04:39:21;100515.47;;;11.92;52.72
16525;BME280;8375;33.594;-117.718;2023-04-06T04:41:49;100514.75;;;11.89;53.26
16525;BME280;8375;33.594;-117.718;2023-04-06T04:44:18;100510.25;;;11.80;54.35
16525;BME280;8375;33.594;-117.718;2023-04-06T04:46:46;100512.72;;;11.82;56.36
16525;BME280;8375;33.594;-117.718;2023-04-06T04:49:15;100518.53;;;11.85;57.54
16525;BME280;8375;33.594;-117.718;2023-04-06T04:51:45;100521.47;;;11.81;55.00
16525;BME280;8375;33.594;-117.718;2023-04-06T04:54:14;100521.13;;;11.74;55.21
16525;BME280;8375;33.594;-117.718;2023-04-06T04:56:43;100513.81;;;11.68;55.45
16525;BME280;8375;33.594;-117.718;2023-04-06T04:59:11;100518.75;;;11.59;55.99
16525;BME280;8375;33.594;-117.718;2023-04-06T05:01:40;100510.03;;;11.61;56.56
16525;BME280;8375;33.594;-117.718;2023-04-06T05:04:09;100506.94;;;11.55;57.00
16525;BME280;8375;33.594;-117.718;2023-04-06T05:06:37;100517.44;;;11.54;57.34
16525;BME280;8375;33.594;-117.718;2023-04-06T05:09:07;100517.34;;;11.55;57.44
16525;BME280;8375;33.594;-117.718;2023-04-06T05:11:36;100511.91;;;11.47;56.27
16525;BME280;8375;33.594;-117.718;2023-04-06T05:14:05;100520.03;;;11.42;56.76
16525;BME280;8375;33.594;-117.718;2023-04-06T05:16:34;100514.34;;;11.37;57.29
16525;BME280;8375;33.594;-117.718;2023-04-06T05:19:03;100516.94;;;11.37;57.49
16525;BME280;8375;33.594;-117.718;2023-04-06T05:21:32;100522.84;;;11.28;57.88
16525;BME280;8375;33.594;-117.718;2023-04-06T05:24:00;100522.97;;;11.26;58.25
16525;BME280;8375;33.594;-117.718;2023-04-06T05:26:31;100524.50;;;11.29;59.70
16525;BME280;8375;33.594;-117.718;2023-04-06T05:29:00;100528.16;;;11.26;59.32
16525;BME280;8375;33.594;-117.718;2023-04-06T05:31:29;100522.56;;;11.20;58.90
16525;BME280;8375;33.594;-117.718;2023-04-06T05:33:58;100519.25;;;11.18;60.38
16525;BME280;8375;33.594;-117.718;2023-04-06T05:36:27;100517.59;;;11.17;58.67
16525;BME280;8375;33.594;-117.718;2023-04-06T05:38:56;100519.84;;;11.10;58.95
16525;BME280;8375;33.594;-117.718;2023-04-06T05:41:25;100517.69;;;11.04;59.27
16525;BME280;8375;33.594;-117.718;2023-04-06T05:43:55;100518.66;;;11.03;59.27
16525;BME280;8375;33.594;-117.718;2023-04-06T05:46:24;100521.25;;;11.03;59.54
16525;BME280;8375;33.594;-117.718;2023-04-06T05:48:53;100523.84;;;11.03;60.47
16525;BME280;8375;33.594;-117.718;2023-04-06T05:51:21;100517.94;;;11.00;58.51
16525;BME280;8375;33.594;-117.718;2023-04-06T05:53:50;100521.91;;;10.93;58.85
16525;BME280;8375;33.594;-117.718;2023-04-06T05:56:19;100520.63;;;10.99;61.65
16525;BME280;8375;33.594;-117.718;2023-04-06T05:58:48;100521.47;;;10.99;60.22
16525;BME280;8375;33.594;-117.718;2023-04-06T06:01:18;100522.84;;;10.92;60.26
16525;BME280;8375;33.594;-117.718;2023-04-06T06:03:47;100526.84;;;10.85;59.62
16525;BME280;8375;33.594;-117.718;2023-04-06T06:06:15;100526.34;;;10.80;59.91
16525;BME280;8375;33.594;-117.718;2023-04-06T06:08:44;100528.22;;;10.78;59.98
16525;BME280;8375;33.594;-117.718;2023-04-06T06:11:13;100518.88;;;10.75;60.47
16525;BME280;8375;33.594;-117.718;2023-04-06T06:13:41;100527.25;;;10.67;60.18
16525;BME280;8375;33.594;-117.718;2023-04-06T06:16:10;100518.72;;;10.65;59.96
16525;BME280;8375;33.594;-117.718;2023-04-06T06:18:40;100534.94;;;10.56;60.61
16525;BME280;8375;33.594;-117.718;2023-04-06T06:21:09;100533.63;;;10.50;60.64
16525;BME280;8375;33.594;-117.718;2023-04-06T06:23:38;100531.13;;;10.49;60.26
16525;BME280;8375;33.594;-117.718;2023-04-06T06:26:07;100535.50;;;10.48;62.22
16525;BME280;8375;33.594;-117.718;2023-04-06T06:28:36;100537.47;;;10.45;62.25
16525;BME280;8375;33.594;-117.718;2023-04-06T06:31:04;100541.31;;;10.39;62.68
16525;BME280;8375;33.594;-117.718;2023-04-06T06:33:33;100540.81;;;10.34;62.39
16525;BME280;8375;33.594;-117.718;2023-04-06T06:36:04;100536.88;;;10.28;62.46
16525;BME280;8375;33.594;-117.718;2023-04-06T06:38:33;100538.00;;;10.24;62.53
16525;BME280;8375;33.594;-117.718;2023-04-06T06:41:01;100533.88;;;10.21;63.04
16525;BME280;8375;33.594;-117.718;2023-04-06T06:43:30;100541.97;;;10.17;63.52
16525;BME280;8375;33.594;-117.718;2023-04-06T06:45:59;100539.50;;;10.15;64.32
16525;BME280;8375;33.594;-117.718;2023-04-06T06:48:27;100540.44;;;10.14;64.41
16525;BME280;8375;33.594;-117.718;2023-04-06T06:50:57;100545.00;;;10.10;63.98
16525;BME280;8375;33.594;-117.718;2023-04-06T06:53:27;100547.09;;;10.05;63.13
16525;BME280;8375;33.594;-117.718;2023-04-06T06:55:56;100543.97;;;10.00;63.71
16525;BME280;8375;33.594;-117.718;2023-04-06T06:58:24;100535.69;;;9.95;64.71
16525;BME280;8375;33.594;-117.718;2023-04-06T07:00:56;100541.09;;;9.92;65.94
16525;BME280;8375;33.594;-117.718;2023-04-06T07:03:25;100540.16;;;9.93;65.40
16525;BME280;8375;33.594;-117.718;2023-04-06T07:05:55;100542.22;;;9.88;65.37
16525;BME280;8375;33.594;-117.718;2023-04-06T07:08:24;100533.72;;;9.86;65.99
16525;BME280;8375;33.594;-117.718;2023-04-06T07:10:54;100537.16;;;9.73;65.64
16525;BME280;8375;33.594;-117.718;2023-04-06T07:13:23;100538.81;;;9.74;66.35
16525;BME280;8375;33.594;-117.718;2023-04-06T07:15:53;100544.22;;;9.71;66.00
16525;BME280;8375;33.594;-117.718;2023-04-06T07:18:22;100539.44;;;9.65;65.82
16525;BME280;8375;33.594;-117.718;2023-04-06T07:20:51;100539.75;;;9.60;66.33
16525;BME280;8375;33.594;-117.718;2023-04-06T07:23:20;100538.72;;;9.63;67.23
16525;BME280;8375;33.594;-117.718;2023-04-06T07:25:49;100543.69;;;9.66;68.97
16525;BME280;8375;33.594;-117.718;2023-04-06T07:28:20;100551.91;;;9.73;70.14
16525;BME280;8375;33.594;-117.718;2023-04-06T07:30:49;100546.06;;;9.69;70.03
16525;BME280;8375;33.594;-117.718;2023-04-06T07:33:17;100543.81;;;9.64;69.60
16525;BME280;8375;33.594;-117.718;2023-04-06T07:35:46;100553.03;;;9.68;69.58
16525;BME280;8375;33.594;-117.718;2023-04-06T07:38:15;100551.47;;;9.66;69.54
16525;BME280;8375;33.594;-117.718;2023-04-06T07:40:44;100555.41;;;9.59;68.79
16525;BME280;8375;33.594;-117.718;2023-04-06T07:43:13;100553.94;;;9.54;68.71
16525;BME280;8375;33.594;-117.718;2023-04-06T07:45:43;100547.09;;;9.53;68.96
16525;BME280;8375;33.594;-117.718;2023-04-06T07:48:12;100547.50;;;9.47;69.15
16525;BME280;8375;33.594;-117.718;2023-04-06T07:50:41;100551.16;;;9.45;69.43
16525;BME280;8375;33.594;-117.718;2023-04-06T07:53:10;100556.94;;;9.48;70.56
16525;BME280;8375;33.594;-117.718;2023-04-06T07:55:38;100552.81;;;9.59;72.71
16525;BME280;8375;33.594;-117.718;2023-04-06T07:58:07;100545.88;;;9.59;72.46
16525;BME280;8375;33.594;-117.718;2023-04-06T08:00:36;100551.06;;;9.59;73.50
16525;BME280;8375;33.594;-117.718;2023-04-06T08:03:06;100552.41;;;9.52;72.29
16525;BME280;8375;33.594;-117.718;2023-04-06T08:05:35;100553.75;;;9.45;70.11
16525;BME280;8375;33.594;-117.718;2023-04-06T08:08:03;100550.19;;;9.33;69.91
16525;BME280;8375;33.594;-117.718;2023-04-06T08:10:32;100557.22;;;9.31;69.95
16525;BME280;8375;33.594;-117.718;2023-04-06T08:13:01;100548.94;;;9.25;70.44
16525;BME280;8375;33.594;-117.718;2023-04-06T08:15:30;100544.47;;;9.28;71.46
16525;BME280;8375;33.594;-117.718;2023-04-06T08:17:58;100541.38;;;9.22;71.50
16525;BME280;8375;33.594;-117.718;2023-04-06T08:20:29;100542.75;;;9.28;73.02
16525;BME280;8375;33.594;-117.718;2023-04-06T08:22:57;100539.50;;;9.24;73.08
16525;BME280;8375;33.594;-117.718;2023-04-06T08:25:26;100546.47;;;9.24;73.50
16525;BME280;8375;33.594;-117.718;2023-04-06T08:27:55;100543.75;;;9.25;73.90
16525;BME280;8375;33.594;-117.718;2023-04-06T08:30:23;100536.31;;;9.21;73.62
16525;BME280;8375;33.594;-117.718;2023-04-06T08:32:52;100543.34;;;9.19;72.54
16525;BME280;8375;33.594;-117.718;2023-04-06T08:35:21;100535.56;;;9.19;72.41
16525;BME280;8375;33.594;-117.718;2023-04-06T08:37:51;100534.31;;;9.12;71.57
16525;BME280;8375;33.594;-117.718;2023-04-06T08:40:20;100525.28;;;9.04;72.71
16525;BME280;8375;33.594;-117.718;2023-04-06T08:42:51;100521.78;;;9.05;73.12
16525;BME280;8375;33.594;-117.718;2023-04-06T08:45:20;100521.56;;;9.08;72.54
16525;BME280;8375;33.594;-117.718;2023-04-06T08:47:50;100515.31;;;8.98;72.53
16525;BME280;8375;33.594;-117.718;2023-04-06T08:50:19;100512.63;;;9.00;73.29
16525;BME280;8375;33.594;-117.718;2023-04-06T08:52:50;100514.47;;;8.98;74.48
16525;BME280;8375;33.594;-117.718;2023-04-06T08:55:19;100514.06;;;8.91;73.87
16525;BME280;8375;33.594;-117.718;2023-04-06T08:57:49;100509.91;;;8.88;74.65
16525;BME280;8375;33.594;-117.718;2023-04-06T09:00:20;100511.47;;;8.91;74.48
16525;BME280;8375;33.594;-117.718;2023-04-06T09:02:50;100501.31;;;8.88;73.84
16525;BME280;8375;33.594;-117.718;2023-04-06T09:05:22;100506.69;;;8.85;74.03
16525;BME280;8375;33.594;-117.718;2023-04-06T09:07:54;100499.13;;;8.82;74.92
16525;BME280;8375;33.594;-117.718;2023-04-06T09:10:23;100495.69;;;8.81;75.54
16525;BME280;8375;33.594;-117.718;2023-04-06T09:13:01;100496.63;;;8.80;75.52
16525;BME280;8375;33.594;-117.718;2023-04-06T09:15:30;100492.38;;;8.79;75.87
16525;BME280;8375;33.594;-117.718;2023-04-06T09:17:59;100492.50;;;8.77;76.17
16525;BME280;8375;33.594;-117.718;2023-04-06T09:20:27;100485.75;;;8.75;75.74
16525;BME280;8375;33.594;-117.718;2023-04-06T09:22:58;100481.69;;;8.71;75.56
16525;BME280;8375;33.594;-117.718;2023-04-06T09:25:27;100469.59;;;8.71;75.83
16525;BME280;8375;33.594;-117.718;2023-04-06T09:27:59;100477.03;;;8.63;75.77
16525;BME280;8375;33.594;-117.718;2023-04-06T09:30:29;100467.69;;;8.60;75.66
16525;BME280;8375;33.594;-117.718;2023-04-06T09:32:57;100473.59;;;8.62;76.35
16525;BME280;8375;33.594;-117.718;2023-04-06T09:35:27;100469.47;;;8.60;76.31
16525;BME280;8375;33.594;-117.718;2023-04-06T09:37:59;100473.91;;;8.58;76.40
16525;BME280;8375;33.594;-117.718;2023-04-06T09:40:27;100475.84;;;8.54;75.75
16525;BME280;8375;33.594;-117.718;2023-04-06T09:42:56;100471.78;;;8.50;75.84
16525;BME280;8375;33.594;-117.718;2023-04-06T09:45:26;100466.63;;;8.50;76.10
16525;BME280;8375;33.594;-117.718;2023-04-06T09:47:58;100464.94;;;8.49;76.63
16525;BME280;8375;33.594;-117.718;2023-04-06T09:50:27;100454.41;;;8.52;76.60
16525;BME280;8375;33.594;-117.718;2023-04-06T09:52:59;100452.00;;;8.49;76.23
16525;BME280;8375;33.594;-117.718;2023-04-06T09:55:33;100459.22;;;8.44;76.30
16525;BME280;8375;33.594;-117.718;2023-04-06T09:58:05;100455.88;;;8.42;76.34
16525;BME280;8375;33.594;-117.718;2023-04-06T10:00:40;100452.19;;;8.46;77.21
16525;BME280;8375;33.594;-117.718;2023-04-06T10:03:14;100446.44;;;8.55;79.80
16525;BME280;8375;33.594;-117.718;2023-04-06T10:05:50;100456.19;;;8.51;76.51
16525;BME280;8375;33.594;-117.718;2023-04-06T10:08:23;100450.00;;;8.40;75.73
16525;BME280;8375;33.594;-117.718;2023-04-06T10:10:54;100448.63;;;8.34;75.99
16525;BME280;8375;33.594;-117.718;2023-04-06T10:13:24;100440.97;;;8.32;75.63
16525;BME280;8375;33.594;-117.718;2023-04-06T10:15:52;100446.31;;;8.29;76.39
16525;BME280;8375;33.594;-117.718;2023-04-06T10:18:23;100451.06;;;8.22;75.92
16525;BME280;8375;33.594;-117.718;2023-04-06T10:20:55;100440.53;;;8.26;77.91
16525;BME280;8375;33.594;-117.718;2023-04-06T10:23:31;100436.56;;;8.20;76.93
16525;BME280;8375;33.594;-117.718;2023-04-06T10:26:01;100438.81;;;8.12;76.79
16525;BME280;8375;33.594;-117.718;2023-04-06T10:28:31;100442.63;;;8.06;77.67
16525;BME280;8375;33.594;-117.718;2023-04-06T10:31:03;100435.13;;;8.01;76.64
16525;BME280;8375;33.594;-117.718;2023-04-06T10:33:33;100435.44;;;7.97;76.21
16525;BME280;8375;33.594;-117.718;2023-04-06T10:36:10;100433.28;;;8.03;78.79
16525;BME280;8375;33.594;-117.718;2023-04-06T10:38:41;100433.66;;;7.97;76.42
16525;BME280;8375;33.594;-117.718;2023-04-06T10:41:11;100432.56;;;7.87;76.42
16525;BME280;8375;33.594;-117.718;2023-04-06T10:43:41;100428.31;;;7.86;77.33
16525;BME280;8375;33.594;-117.718;2023-04-06T10:46:10;100431.28;;;7.80;77.64
16525;BME280;8375;33.594;-117.718;2023-04-06T10:48:39;100433.22;;;7.76;77.78
16525;BME280;8375;33.594;-117.718;2023-04-06T10:51:10;100423.91;;;7.73;78.93
16525;BME280;8375;33.594;-117.718;2023-04-06T10:53:42;100431.84;;;7.70;79.92
16525;BME280;8375;33.594;-117.718;2023-04-06T10:56:12;100426.56;;;7.72;79.81
16525;BME280;8375;33.594;-117.718;2023-04-06T10:58:44;100431.84;;;7.70;78.51
16525;BME280;8375;33.594;-117.718;2023-04-06T11:01:15;100427.44;;;7.58;77.83
16525;BME280;8375;33.594;-117.718;2023-04-06T11:03:45;100431.69;;;7.59;79.02
16525;BME280;8375;33.594;-117.718;2023-04-06T11:06:21;100425.03;;;7.55;79.00
16525;BME280;8375;33.594;-117.718;2023-04-06T11:08:52;100433.53;;;7.57;79.62
16525;BME280;8375;33.594;-117.718;2023-04-06T11:11:21;100426.88;;;7.53;78.26
16525;BME280;8375;33.594;-117.718;2023-04-06T11:13:53;100429.28;;;7.56;79.13
16525;BME280;8375;33.594;-117.718;2023-04-06T11:16:23;100425.03;;;7.55;79.03
16525;BME280;8375;33.594;-117.718;2023-04-06T11:18:54;100423.25;;;7.55;81.41
16525;BME280;8375;33.594;-117.718;2023-04-06T11:21:35;100423.75;;;7.47;79.00
16525;BME280;8375;33.594;-117.718;2023-04-06T11:24:09;100420.50;;;7.44;79.54
16525;BME280;8375;33.594;-117.718;2023-04-06T11:26:42;100418.09;;;7.41;79.38
16525;BME280;8375;33.594;-117.718;2023-04-06T11:29:12;100428.53;;;7.39;78.84
16525;BME280;8375;33.594;-117.718;2023-04-06T11:31:42;100421.06;;;7.34;79.92
16525;BME280;8375;33.594;-117.718;2023-04-06T11:34:16;100430.09;;;7.27;79.35
16525;BME280;8375;33.594;-117.718;2023-04-06T11:36:46;100429.72;;;7.19;79.44
16525;BME280;8375;33.594;-117.718;2023-04-06T11:39:20;100424.72;;;7.16;80.86
16525;BME280;8375;33.594;-117.718;2023-04-06T11:41:50;100420.66;;;7.12;79.87
16525;BME280;8375;33.594;-117.718;2023-04-06T11:44:31;100431.00;;;7.12;80.13
16525;BME280;8375;33.594;-117.718;2023-04-06T11:47:01;100430.25;;;7.10;80.22
16525;BME280;8375;33.594;-117.718;2023-04-06T11:49:30;100422.44;;;7.11;79.96
16525;BME280;8375;33.594;-117.718;2023-04-06T11:52:00;100427.78;;;7.08;80.06
16525;BME280;8375;33.594;-117.718;2023-04-06T11:54:35;100421.31;;;7.01;79.35
16525;BME280;8375;33.594;-117.718;2023-04-06T11:57:04;100425.00;;;6.97;80.17
16525;BME280;8375;33.594;-117.718;2023-04-06T11:59:33;100426.81;;;6.95;80.57
16525;BME280;8375;33.594;-117.718;2023-04-06T12:02:02;100424.31;;;6.93;81.03
16525;BME280;8375;33.594;-117.718;2023-04-06T12:04:32;100426.72;;;6.96;82.87
16525;BME280;8375;33.594;-117.718;2023-04-06T12:07:01;100421.00;;;6.91;81.56
16525;BME280;8375;33.594;-117.718;2023-04-06T12:09:30;100416.88;;;6.88;82.43
16525;BME280;8375;33.594;-117.718;2023-04-06T12:12:02;100418.94;;;6.82;81.78
16525;BME280;8375;33.594;-117.718;2023-04-06T12:14:31;100419.22;;;6.77;81.85
16525;BME280;8375;33.594;-117.718;2023-04-06T12:17:00;100417.06;;;6.69;82.18
16525;BME280;8375;33.594;-117.718;2023-04-06T12:19:28;100420.56;;;6.68;82.30
16525;BME280;8375;33.594;-117.718;2023-04-06T12:21:57;100419.19;;;6.63;81.81
16525;BME280;8375;33.594;-117.718;2023-04-06T12:24:26;100421.19;;;6.57;82.55
16525;BME280;8375;33.594;-117.718;2023-04-06T12:26:55;100426.69;;;6.51;83.18
16525;BME280;8375;33.594;-117.718;2023-04-06T12:29:26;100429.28;;;6.51;84.60
16525;BME280;8375;33.594;-117.718;2023-04-06T12:31:55;100434.78;;;6.45;83.95
16525;BME280;8375;33.594;-117.718;2023-04-06T12:34:24;100439.59;;;6.35;83.81
16525;BME280;8375;33.594;-117.718;2023-04-06T12:36:53;100437.69;;;6.23;85.07
16525;BME280;8375;33.594;-117.718;2023-04-06T12:39:22;100436.13;;;6.20;85.33
16525;BME280;8375;33.594;-117.718;2023-04-06T12:41:51;100447.25;;;6.21;85.58
16525;BME280;8375;33.594;-117.718;2023-04-06T12:44:20;100448.75;;;6.25;86.75
16525;BME280;8375;33.594;-117.718;2023-04-06T12:46:51;100444.09;;;6.15;86.69